Time;durP1;ratioP1;P1;durP2;ratioP2;P2;SDS_P1;SDS_P2;PMS_P1;PMS_P2;Temp;Humidity;BMP_temperature;BMP_pressure;BME280_temperature;BME280_humidity;BME280_pressure;Samples;Min_cycle;Max_cycle;Signal;HPM_P1;HPM_P2
2022/10/10 00:00:49;;;;;;;4.25;3.78;;;10.70;99.90;;;;;;4970834;28;98581;-72
2022/10/10 00:03:18;;;;;;;7.45;3.80;;;10.70;99.90;;;;;;4937445;28;102187;-72
2022/10/10 00:05:45;;;;;;;7.07;4.43;;;10.70;99.90;;;;;;4954057;28;99294;-72
2022/10/10 00:08:14;;;;;;;5.93;4.10;;;10.70;99.90;;;;;;4970053;28;102296;-72
2022/10/10 00:10:41;;;;;;;6.15;4.05;;;10.60;99.90;;;;;;4970598;28;98575;-72
2022/10/10 00:13:08;;;;;;;4.82;4.28;;;10.60;99.90;;;;;;4970212;28;98613;-72
2022/10/10 00:15:35;;;;;;;4.43;3.63;;;10.60;99.90;;;;;;4969656;28;99965;-72
2022/10/10 00:18:03;;;;;;;4.78;3.92;;;10.50;99.90;;;;;;4954919;28;99878;-72
2022/10/10 00:20:30;;;;;;;5.95;4.32;;;10.50;99.90;;;;;;4955394;28;99376;-72
2022/10/10 00:22:56;;;;;;;6.15;4.60;;;10.50;99.90;;;;;;4937737;28;99353;-72
2022/10/10 00:25:23;;;;;;;5.45;4.18;;;10.50;99.90;;;;;;4954935;28;99277;-72
2022/10/10 00:27:51;;;;;;;6.10;4.45;;;10.50;99.90;;;;;;4955130;28;98970;-72
2022/10/10 00:30:18;;;;;;;5.78;5.13;;;10.40;99.90;;;;;;4937010;28;98531;-72
2022/10/10 00:32:44;;;;;;;4.97;3.97;;;10.40;99.90;;;;;;4938393;28;98335;-72
2022/10/10 00:35:12;;;;;;;6.10;4.68;;;10.40;99.90;;;;;;4953154;28;107883;-72
2022/10/10 00:37:39;;;;;;;4.35;3.28;;;10.40;99.90;;;;;;4954555;28;99011;-72
2022/10/10 00:40:06;;;;;;;6.72;4.10;;;10.40;99.90;;;;;;4969330;28;99295;-72
2022/10/10 00:42:33;;;;;;;7.20;3.95;;;10.40;99.90;;;;;;4955201;28;98445;-72
2022/10/10 00:45:20;;;;;;;5.15;4.00;;;10.40;99.90;;;;;;4953125;28;99428;-72
2022/10/10 00:47:48;;;;;;;7.68;4.60;;;10.40;99.90;;;;;;4954610;28;98891;-72
2022/10/10 00:50:17;;;;;;;7.13;3.88;;;10.30;99.90;;;;;;4954687;28;98550;-72
2022/10/10 00:52:45;;;;;;;6.00;4.30;;;10.30;99.90;;;;;;4953739;28;98656;-72
2022/10/10 00:55:13;;;;;;;4.45;4.03;;;10.30;99.90;;;;;;4954515;28;99433;-72
2022/10/10 00:57:40;;;;;;;6.75;4.30;;;10.30;99.90;;;;;;4953817;28;99064;-72
2022/10/10 01:00:09;;;;;;;5.68;4.43;;;10.30;99.90;;;;;;4953195;28;98576;-72
2022/10/10 01:02:37;;;;;;;6.03;4.05;;;10.20;99.90;;;;;;4953347;28;98618;-72
2022/10/10 01:05:04;;;;;;;7.82;4.55;;;10.20;99.90;;;;;;4968869;28;105912;-72
2022/10/10 01:07:32;;;;;;;6.13;4.65;;;10.10;99.90;;;;;;4952906;28;99892;-72
2022/10/10 01:10:05;;;;;;;7.35;4.60;;;10.10;99.90;;;;;;4953581;28;98600;-72
2022/10/10 01:12:57;;;;;;;5.03;4.40;;;10.10;99.90;;;;;;4954904;28;99000;-72
2022/10/10 01:15:43;;;;;;;5.15;4.15;;;10.10;99.90;;;;;;4953118;28;99328;-72
2022/10/10 01:18:16;;;;;;;5.88;4.65;;;10.00;99.90;;;;;;4936406;28;101825;-72
2022/10/10 01:20:56;;;;;;;7.32;4.38;;;10.00;99.90;;;;;;4969425;28;98660;-72
2022/10/10 01:24:14;;;;;;;4.88;4.47;;;9.90;99.90;;;;;;4969622;28;97796;-72
2022/10/10 01:27:25;;;;;;;4.65;4.15;;;10.00;99.90;;;;;;4916100;28;102150;-72
2022/10/10 01:30:12;;;;;;;6.82;4.40;;;9.90;99.90;;;;;;4931172;28;99216;-72
2022/10/10 01:32:43;;;;;;;9.38;4.70;;;9.80;99.90;;;;;;4952567;28;100215;-72
2022/10/10 01:35:31;;;;;;;5.05;4.53;;;9.80;99.90;;;;;;4954309;28;98615;-72
2022/10/10 01:38:42;;;;;;;6.65;4.90;;;9.80;99.90;;;;;;4952510;28;101845;-72
2022/10/10 01:41:16;;;;;;;7.00;4.28;;;9.80;99.90;;;;;;4947937;28;99066;-72
2022/10/10 01:43:43;;;;;;;4.63;4.18;;;9.80;99.90;;;;;;4954587;28;98535;-72
2022/10/10 01:46:16;;;;;;;5.63;4.80;;;9.80;99.90;;;;;;4953770;28;98583;-72
2022/10/10 01:48:46;;;;;;;6.63;4.32;;;9.80;99.90;;;;;;4953998;28;100608;-72
2022/10/10 01:51:25;;;;;;;6.38;4.88;;;9.70;99.90;;;;;;4968718;28;101602;-72
2022/10/10 01:54:07;;;;;;;6.65;4.55;;;9.80;99.90;;;;;;4954350;28;98601;-72
2022/10/10 01:56:52;;;;;;;5.93;4.30;;;9.80;99.90;;;;;;4935972;28;98588;-72
2022/10/10 01:59:47;;;;;;;7.00;4.20;;;9.70;99.90;;;;;;4967650;28;102484;-72
2022/10/10 02:02:39;;;;;;;3.95;3.55;;;9.70;99.90;;;;;;4926407;28;105840;-72
2022/10/10 02:05:15;;;;;;;6.15;4.47;;;9.60;99.90;;;;;;4954190;28;98613;-72
2022/10/10 02:07:48;;;;;;;6.63;4.63;;;9.70;99.90;;;;;;4936168;28;98628;-72
2022/10/10 02:10:20;;;;;;;4.73;4.33;;;9.70;99.90;;;;;;4952182;28;99277;-72
2022/10/10 02:12:48;;;;;;;6.22;5.15;;;9.70;99.90;;;;;;4953656;28;99063;-72
2022/10/10 02:15:21;;;;;;;7.40;4.72;;;9.60;99.90;;;;;;4952206;28;98662;-72
2022/10/10 02:17:50;;;;;;;5.57;4.60;;;9.60;99.90;;;;;;4936509;28;97850;-72
2022/10/10 02:20:21;;;;;;;5.40;4.78;;;9.60;99.90;;;;;;4967515;28;115676;-72
2022/10/10 02:22:50;;;;;;;8.20;5.20;;;9.60;99.90;;;;;;4935455;28;102185;-72
2022/10/10 02:25:23;;;;;;;7.25;4.78;;;9.60;99.90;;;;;;4953061;28;99177;-72
2022/10/10 02:28:13;;;;;;;8.10;4.60;;;9.60;99.90;;;;;;4952158;28;98691;-72
2022/10/10 02:30:45;;;;;;;6.85;4.85;;;9.50;99.90;;;;;;4951504;28;101993;-72
2022/10/10 02:33:18;;;;;;;7.85;5.22;;;9.50;99.90;;;;;;4968023;28;101779;-72
2022/10/10 02:35:48;;;;;;;6.88;4.70;;;9.50;99.90;;;;;;4952362;28;98619;-72
2022/10/10 02:38:16;;;;;;;6.20;5.03;;;9.40;99.90;;;;;;4968178;28;98523;-72
2022/10/10 02:40:46;;;;;;;5.00;4.50;;;9.40;99.90;;;;;;4952667;28;99329;-72
2022/10/10 02:43:14;;;;;;;5.80;5.28;;;9.40;99.90;;;;;;4968250;28;103453;-72
2022/10/10 02:45:42;;;;;;;7.10;4.93;;;9.40;99.90;;;;;;4953566;28;98482;-72
2022/10/10 02:48:09;;;;;;;6.25;5.10;;;9.40;99.90;;;;;;4968164;28;98621;-72
2022/10/10 02:50:37;;;;;;;7.78;4.90;;;9.30;99.90;;;;;;4951001;28;102528;-72
2022/10/10 02:53:04;;;;;;;6.03;5.03;;;9.30;99.90;;;;;;4952335;28;110327;-72
2022/10/10 02:55:31;;;;;;;5.97;5.40;;;9.30;99.90;;;;;;4952004;28;98641;-72
2022/10/10 02:57:57;;;;;;;7.53;5.40;;;9.30;99.90;;;;;;4967759;28;98612;-72
2022/10/10 03:00:24;;;;;;;8.07;5.13;;;9.30;99.90;;;;;;4952324;28;99217;-72
2022/10/10 03:02:51;;;;;;;6.85;5.32;;;9.30;99.90;;;;;;4967698;28;100167;-72
2022/10/10 03:05:18;;;;;;;6.03;5.10;;;9.30;99.90;;;;;;4935122;28;98535;-72
2022/10/10 03:07:45;;;;;;;6.43;5.22;;;9.20;99.90;;;;;;4952343;28;97763;-72
2022/10/10 03:10:12;;;;;;;6.43;5.38;;;9.20;99.90;;;;;;4938548;28;101840;-72
2022/10/10 03:12:39;;;;;;;5.32;4.88;;;9.20;99.90;;;;;;4954913;28;99104;-72
2022/10/10 03:15:06;;;;;;;10.52;5.03;;;9.20;99.90;;;;;;4938808;28;99376;-72
2022/10/10 03:17:37;;;;;;;5.50;4.97;;;9.20;99.90;;;;;;4954634;28;99686;-72
2022/10/10 03:20:05;;;;;;;5.70;4.57;;;9.20;99.90;;;;;;4954674;28;99448;-72
2022/10/10 03:22:32;;;;;;;7.47;4.97;;;9.10;99.90;;;;;;4955688;28;99742;-72
2022/10/10 03:24:58;;;;;;;6.93;4.72;;;9.10;99.90;;;;;;4939122;28;98470;-72
2022/10/10 03:27:25;;;;;;;5.53;5.03;;;9.10;99.90;;;;;;4954990;28;98528;-72
2022/10/10 03:29:52;;;;;;;8.30;5.15;;;9.10;99.90;;;;;;4954279;28;99112;-72
2022/10/10 03:32:20;;;;;;;5.47;4.97;;;9.10;99.90;;;;;;4971075;28;102186;-72
2022/10/10 03:34:47;;;;;;;6.90;4.75;;;9.10;99.90;;;;;;4971346;28;98649;-72
2022/10/10 03:37:14;;;;;;;8.65;5.80;;;9.10;99.90;;;;;;4956351;28;98635;-72
2022/10/10 03:39:40;;;;;;;5.47;4.90;;;9.10;99.90;;;;;;4969704;28;114388;-72
2022/10/10 03:42:07;;;;;;;5.97;4.80;;;9.00;99.90;;;;;;4955781;28;99619;-72
2022/10/10 03:44:34;;;;;;;7.18;4.80;;;9.00;99.90;;;;;;4956010;28;98537;-72
2022/10/10 03:47:01;;;;;;;7.75;5.25;;;9.00;99.90;;;;;;4954459;28;99236;-72
2022/10/10 03:49:28;;;;;;;6.72;5.07;;;9.00;99.90;;;;;;4955205;28;99407;-72
2022/10/10 03:51:56;;;;;;;6.28;4.85;;;9.00;99.90;;;;;;4954060;28;102031;-72
2022/10/10 03:54:23;;;;;;;5.80;4.70;;;9.00;99.90;;;;;;4955641;28;98506;-72
2022/10/10 03:56:50;;;;;;;6.18;5.18;;;9.00;99.90;;;;;;4956274;28;97842;-72
2022/10/10 03:59:16;;;;;;;6.18;5.00;;;8.90;99.90;;;;;;4954198;28;99477;-72
2022/10/10 04:01:43;;;;;;;5.47;4.95;;;9.00;99.90;;;;;;4953505;28;101708;-72
2022/10/10 04:04:10;;;;;;;7.07;4.72;;;8.90;99.90;;;;;;4970264;28;99278;-72
2022/10/10 04:06:37;;;;;;;6.35;4.70;;;8.90;99.90;;;;;;4955227;28;98481;-72
2022/10/10 04:09:04;;;;;;;6.35;5.10;;;8.90;99.90;;;;;;4955414;28;99285;-72
2022/10/10 04:11:31;;;;;;;8.23;5.20;;;8.90;99.90;;;;;;4937400;28;101594;-72
2022/10/10 04:13:58;;;;;;;5.40;4.90;;;8.90;99.90;;;;;;4970610;28;98538;-72
2022/10/10 04:16:25;;;;;;;8.63;4.80;;;8.90;99.90;;;;;;4970513;28;99200;-72
2022/10/10 04:18:52;;;;;;;7.22;4.78;;;8.90;99.90;;;;;;4969829;28;101796;-72
2022/10/10 04:21:19;;;;;;;5.93;5.38;;;8.90;99.90;;;;;;4954399;28;98685;-72
2022/10/10 04:23:46;;;;;;;7.47;5.15;;;8.90;99.90;;;;;;4970420;28;99126;-72
2022/10/10 04:26:13;;;;;;;7.18;4.95;;;8.90;99.90;;;;;;4970288;28;98471;-72
2022/10/10 04:28:40;;;;;;;8.85;5.53;;;8.90;99.90;;;;;;4952880;28;102224;-72
2022/10/10 04:31:07;;;;;;;8.25;5.18;;;8.90;99.90;;;;;;4969667;28;103375;-72
2022/10/10 04:33:34;;;;;;;6.75;5.07;;;8.90;99.90;;;;;;4970006;28;99128;-72
2022/10/10 04:36:01;;;;;;;6.93;6.25;;;8.90;99.90;;;;;;4953871;28;98687;-72
2022/10/10 04:38:28;;;;;;;8.13;5.25;;;8.90;99.90;;;;;;4955082;28;99407;-72
2022/10/10 04:40:55;;;;;;;5.88;5.20;;;8.80;99.90;;;;;;4937499;28;99069;-72
2022/10/10 04:43:22;;;;;;;7.20;5.75;;;8.90;99.90;;;;;;4955232;28;99106;-72
2022/10/10 04:45:48;;;;;;;7.45;5.78;;;8.90;99.90;;;;;;4954231;28;98733;-72
2022/10/10 04:48:15;;;;;;;7.32;5.45;;;8.90;99.90;;;;;;4953463;28;99335;-72
2022/10/10 04:50:42;;;;;;;6.88;5.07;;;8.80;99.90;;;;;;4969377;28;101467;-72
2022/10/10 04:53:10;;;;;;;7.65;5.45;;;8.90;99.90;;;;;;4954650;28;99211;-72
2022/10/10 04:55:37;;;;;;;5.30;4.80;;;8.80;99.90;;;;;;4954813;28;98531;-72
2022/10/10 04:58:04;;;;;;;6.78;5.35;;;8.80;99.90;;;;;;4969222;28;102207;-72
2022/10/10 05:00:31;;;;;;;6.63;5.30;;;8.80;99.90;;;;;;4952903;28;101544;-72
2022/10/10 05:02:57;;;;;;;7.05;5.15;;;8.80;99.90;;;;;;4954794;28;99075;-72
2022/10/10 05:05:24;;;;;;;9.25;5.97;;;8.70;99.90;;;;;;4954815;28;98497;-72
2022/10/10 05:07:52;;;;;;;7.38;5.82;;;8.70;99.90;;;;;;4969222;28;102001;-72
2022/10/10 05:10:21;;;;;;;8.23;5.75;;;8.70;99.90;;;;;;4954542;28;99075;-72
2022/10/10 05:12:48;;;;;;;8.73;6.10;;;8.70;99.90;;;;;;4953194;28;98495;-72
2022/10/10 05:15:16;;;;;;;7.38;6.03;;;8.60;99.90;;;;;;4921193;28;98577;-72
2022/10/10 05:17:43;;;;;;;8.57;6.60;;;8.60;99.90;;;;;;4953612;28;100056;-72
2022/10/10 05:20:10;;;;;;;10.02;6.45;;;8.60;99.90;;;;;;4969127;28;102652;-72
2022/10/10 05:22:37;;;;;;;5.97;5.35;;;8.60;99.90;;;;;;4969286;28;98571;-72
2022/10/10 05:25:04;;;;;;;9.48;6.32;;;8.60;99.90;;;;;;4920864;28;98507;-72
2022/10/10 05:27:31;;;;;;;6.68;6.00;;;8.60;99.90;;;;;;4952924;28;99609;-72
2022/10/10 05:29:58;;;;;;;8.38;6.30;;;8.60;99.90;;;;;;4953088;28;107200;-72
2022/10/10 05:32:25;;;;;;;9.68;6.07;;;8.60;99.90;;;;;;4968620;28;98560;-72
2022/10/10 05:34:52;;;;;;;6.72;6.03;;;8.60;99.90;;;;;;4969520;28;97892;-72
2022/10/10 05:37:18;;;;;;;8.20;6.22;;;8.60;99.90;;;;;;4954071;28;99446;-72
2022/10/10 05:39:47;;;;;;;7.22;6.40;;;8.60;99.90;;;;;;4968656;28;101712;-72
2022/10/10 05:42:18;;;;;;;6.53;5.50;;;8.60;99.90;;;;;;4952902;28;99346;-72
2022/10/10 05:44:45;;;;;;;6.75;6.05;;;8.60;99.90;;;;;;4968921;28;98590;-72
2022/10/10 05:47:11;;;;;;;10.38;6.20;;;8.60;99.90;;;;;;4953923;28;99478;-72
2022/10/10 05:49:38;;;;;;;6.75;5.93;;;8.50;99.90;;;;;;4951997;28;101921;-72
2022/10/10 05:52:05;;;;;;;7.57;6.15;;;8.50;99.90;;;;;;4936339;28;98602;-72
2022/10/10 05:54:32;;;;;;;8.15;5.88;;;8.50;99.90;;;;;;4952458;28;98640;-72
2022/10/10 05:56:59;;;;;;;7.85;6.28;;;8.50;99.90;;;;;;4953671;28;99399;-72
2022/10/10 05:59:28;;;;;;;8.90;6.28;;;8.50;99.90;;;;;;4953426;28;114798;-72
2022/10/10 06:01:55;;;;;;;9.93;6.32;;;8.50;99.90;;;;;;4952299;28;98668;-72
2022/10/10 06:04:22;;;;;;;6.15;5.55;;;8.50;99.90;;;;;;4952882;28;98542;-72
2022/10/10 06:06:50;;;;;;;9.18;6.00;;;8.50;99.90;;;;;;4952969;28;100151;-72
2022/10/10 06:09:17;;;;;;;9.02;6.22;;;8.50;99.90;;;;;;4952194;28;99921;-72
2022/10/10 06:11:44;;;;;;;8.32;5.95;;;8.50;99.90;;;;;;4953687;28;98997;-72
2022/10/10 06:14:11;;;;;;;10.05;6.68;;;8.60;99.90;;;;;;4936445;28;98613;-72
2022/10/10 06:16:38;;;;;;;8.00;6.72;;;8.60;99.90;;;;;;4968154;28;102035;-72
2022/10/10 06:19:05;;;;;;;8.13;6.40;;;8.60;99.90;;;;;;4968038;28;101482;-72
2022/10/10 06:21:33;;;;;;;8.38;6.10;;;8.60;99.90;;;;;;4949411;28;98565;-72
2022/10/10 06:24:00;;;;;;;7.18;5.72;;;8.70;99.90;;;;;;4952609;28;97904;-72
2022/10/10 06:26:27;;;;;;;6.63;5.95;;;8.70;99.90;;;;;;4951993;28;99386;-72
2022/10/10 06:28:53;;;;;;;9.00;6.22;;;8.70;99.90;;;;;;4952257;28;103822;-72
2022/10/10 06:31:20;;;;;;;7.38;6.53;;;8.70;99.90;;;;;;4953302;28;99254;-72
2022/10/10 06:33:48;;;;;;;10.50;7.07;;;8.80;99.90;;;;;;4951896;28;98634;-72
2022/10/10 06:36:15;;;;;;;7.80;7.00;;;8.80;99.90;;;;;;4951966;28;101869;-72
2022/10/10 06:38:44;;;;;;;9.35;7.07;;;8.80;99.90;;;;;;4953133;28;99191;-72
2022/10/10 06:41:12;;;;;;;8.52;7.05;;;8.90;99.90;;;;;;4953368;28;98506;-72
2022/10/10 06:43:40;;;;;;;8.48;6.95;;;8.90;99.90;;;;;;4952169;28;99182;-72
2022/10/10 06:46:08;;;;;;;7.82;6.93;;;8.90;99.90;;;;;;4952727;28;99383;-72
2022/10/10 06:48:35;;;;;;;9.73;6.78;;;9.00;99.90;;;;;;4953071;28;102936;-72
2022/10/10 06:51:07;;;;;;;7.43;6.25;;;9.00;99.90;;;;;;4953037;28;98541;-72
2022/10/10 06:53:35;;;;;;;9.50;6.93;;;9.10;99.90;;;;;;4953485;28;98443;-72
2022/10/10 06:56:03;;;;;;;9.07;6.32;;;9.10;99.90;;;;;;4967162;28;102734;-72
2022/10/10 06:58:30;;;;;;;6.20;5.53;;;9.30;99.90;;;;;;4952612;28;99910;-72
2022/10/10 07:01:00;;;;;;;6.72;5.43;;;9.50;99.90;;;;;;4952580;28;98509;-72
2022/10/10 07:03:29;;;;;;;6.30;5.25;;;9.70;99.90;;;;;;4968031;28;98614;-72
2022/10/10 07:05:58;;;;;;;6.03;5.47;;;10.00;99.90;;;;;;4967504;28;101828;-72
2022/10/10 07:08:26;;;;;;;7.00;6.30;;;10.20;99.90;;;;;;4967743;28;101480;-72
2022/10/10 07:10:53;;;;;;;6.43;5.82;;;10.30;99.90;;;;;;4951545;28;98662;-72
2022/10/10 07:13:20;;;;;;;6.88;5.75;;;10.40;99.90;;;;;;4968313;28;97911;-72
2022/10/10 07:15:47;;;;;;;11.38;10.32;;;10.50;99.90;;;;;;4952413;28;99383;-72
2022/10/10 07:18:16;;;;;;;9.77;8.27;;;10.60;99.90;;;;;;4967081;28;101938;-72
2022/10/10 07:20:43;;;;;;;8.20;7.00;;;10.60;99.90;;;;;;4952171;28;99194;-72
2022/10/10 07:23:10;;;;;;;10.43;9.43;;;10.70;99.90;;;;;;4970177;28;98545;-72
2022/10/10 07:25:38;;;;;;;8.68;7.72;;;10.80;99.90;;;;;;4954211;28;105209;-72
2022/10/10 07:28:06;;;;;;;9.80;8.95;;;11.00;99.90;;;;;;4971941;28;99106;-72
2022/10/10 07:30:42;;;;;;;6.47;5.88;;;11.10;99.90;;;;;;4987114;28;98932;-72
2022/10/10 07:33:10;;;;;;;7.95;6.80;;;11.30;99.90;;;;;;4954459;28;99060;-72
2022/10/10 07:35:39;;;;;;;11.65;10.70;;;11.50;99.90;;;;;;4970335;28;99495;-72
2022/10/10 07:38:06;;;;;;;9.00;8.07;;;11.70;99.90;;;;;;4971818;28;99127;-73
2022/10/10 07:40:33;;;;;;;7.90;7.13;;;11.80;99.90;;;;;;4971181;28;98495;-74
2022/10/10 07:43:00;;;;;;;8.35;7.65;;;12.00;99.90;;;;;;4971965;28;98523;-73
2022/10/10 07:45:27;;;;;;;8.68;7.85;;;12.30;99.90;;;;;;4970447;28;100065;-73
2022/10/10 07:47:53;;;;;;;7.10;6.40;;;12.60;99.90;;;;;;4970369;28;103778;-73
2022/10/10 07:50:20;;;;;;;8.95;6.90;;;12.90;99.90;;;;;;4954837;28;98518;-73
2022/10/10 07:52:47;;;;;;;8.75;7.90;;;13.30;99.90;;;;;;4971461;28;103543;-73
2022/10/10 07:55:14;;;;;;;6.72;6.22;;;13.70;99.90;;;;;;4973508;28;99405;-73
2022/10/10 07:57:41;;;;;;;6.35;5.75;;;14.20;99.90;;;;;;4974971;28;99118;-73
2022/10/10 08:00:09;;;;;;;6.07;5.47;;;14.60;99.90;;;;;;4973873;28;99005;-73
2022/10/10 08:02:39;;;;;;;8.35;5.93;;;15.00;99.90;;;;;;4975968;28;97862;-72
2022/10/10 08:05:07;;;;;;;6.38;5.78;;;15.20;99.90;;;;;;4973317;28;100922;-72
2022/10/10 08:07:34;;;;;;;6.15;5.47;;;15.30;99.90;;;;;;4974927;28;98939;-72
2022/10/10 08:10:01;;;;;;;5.97;5.38;;;15.30;99.90;;;;;;4974609;28;99398;-72
2022/10/10 08:12:28;;;;;;;8.57;6.13;;;15.20;99.90;;;;;;4957768;28;98580;-72
2022/10/10 08:14:55;;;;;;;7.35;5.63;;;15.10;99.90;;;;;;4973724;28;99257;-72
2022/10/10 08:17:22;;;;;;;6.63;5.93;;;14.90;99.90;;;;;;4974759;28;99010;-72
2022/10/10 08:19:49;;;;;;;7.78;6.20;;;14.80;99.90;;;;;;4973632;28;98539;-72
2022/10/10 08:22:16;;;;;;;7.38;5.57;;;14.70;99.90;;;;;;4974800;28;98385;-72
2022/10/10 08:24:43;;;;;;;7.45;6.05;;;14.50;99.90;;;;;;4974739;28;99320;-72
2022/10/10 08:27:10;;;;;;;6.63;5.90;;;14.40;99.90;;;;;;4973375;28;101654;-72
2022/10/10 08:29:37;;;;;;;9.18;7.15;;;14.40;99.90;;;;;;4974652;28;99113;-72
2022/10/10 08:36:53;;;;;;;8.27;6.28;;;14.40;99.90;;;;;;4974066;28;99176;-72
2022/10/10 08:39:20;;;;;;;7.93;6.70;;;14.10;99.90;;;;;;4973003;28;102893;-72
2022/10/10 08:41:57;;;;;;;7.20;5.90;;;14.20;99.90;;;;;;4957441;28;98713;-72
2022/10/10 08:44:44;;;;;;;8.10;6.97;;;14.20;99.90;;;;;;4974572;28;98594;-72
2022/10/10 08:47:32;;;;;;;9.43;6.85;;;14.20;99.90;;;;;;4974146;28;99516;-72
2022/10/10 08:50:39;;;;;;;8.45;6.97;;;14.20;99.90;;;;;;4972594;28;101748;-72
2022/10/10 08:53:21;;;;;;;9.75;6.82;;;14.20;99.90;;;;;;4974524;28;98589;-72
2022/10/10 08:55:48;;;;;;;9.30;7.07;;;14.20;99.90;;;;;;4973344;28;97770;-72
2022/10/10 08:58:25;;;;;;;9.25;6.57;;;14.30;99.90;;;;;;4973783;28;99192;-72
2022/10/10 09:00:51;;;;;;;10.98;7.15;;;14.40;99.90;;;;;;4973931;28;102357;-72
2022/10/10 09:03:33;;;;;;;9.40;6.95;;;14.30;99.90;;;;;;4973981;28;99231;-72
2022/10/10 09:06:05;;;;;;;11.25;6.05;;;14.40;99.90;;;;;;4972172;28;98651;-72
2022/10/10 09:08:54;;;;;;;10.25;6.80;;;14.40;99.90;;;;;;4973885;28;99460;-72
2022/10/10 09:11:30;;;;;;;9.90;7.07;;;14.40;99.90;;;;;;4955995;28;101786;-72
2022/10/10 09:14:24;;;;;;;9.40;6.20;;;14.40;99.90;;;;;;4974367;28;98654;-72
2022/10/10 09:16:57;;;;;;;12.23;7.38;;;14.30;99.90;;;;;;4974595;28;98501;-72
2022/10/10 09:19:51;;;;;;;8.45;6.10;;;14.20;99.90;;;;;;4973505;28;99402;-72
2022/10/10 09:22:21;;;;;;;;;;;14.30;99.90;;;;;;4973296;28;101659;-72
2022/10/10 09:24:55;;;;;;;10.85;6.53;;;14.10;99.90;;;;;;4974525;28;99019;-72
2022/10/10 09:27:25;;;;;;;;;;;14.20;99.90;;;;;;4974506;28;98504;-72
2022/10/10 09:30:13;;;;;;;7.65;6.35;;;14.20;99.90;;;;;;4973715;28;106543;-72
2022/10/10 09:33:18;;;;;;;9.60;7.10;;;14.40;99.90;;;;;;4972522;28;99793;-72
2022/10/10 09:35:47;;;;;;;9.98;7.05;;;14.50;99.90;;;;;;4974028;28;98603;-72
2022/10/10 09:38:36;;;;;;;8.82;6.80;;;14.70;99.90;;;;;;4972445;28;98593;-72
2022/10/10 09:41:24;;;;;;;9.73;7.22;;;14.90;99.90;;;;;;4971926;28;101870;-72
2022/10/10 09:43:56;;;;;;;8.73;7.38;;;15.10;99.90;;;;;;4973521;28;100104;-72
2022/10/10 09:46:23;;;;;;;8.52;7.65;;;15.30;99.90;;;;;;4971955;28;98652;-72
2022/10/10 09:48:51;;;;;;;9.18;6.28;;;15.40;99.90;;;;;;4972657;28;98446;-72
2022/10/10 09:51:19;;;;;;;10.32;7.60;;;15.60;99.90;;;;;;4955186;28;101932;-72
2022/10/10 09:53:47;;;;;;;10.07;7.78;;;15.70;99.90;;;;;;4971758;28;101739;-72
2022/10/10 09:56:21;;;;;;;8.85;7.03;;;15.90;99.90;;;;;;4972822;28;99283;-72
2022/10/10 09:58:51;;;;;;;10.65;7.20;;;16.00;99.90;;;;;;4972634;28;98572;-72
2022/10/10 10:01:19;;;;;;;9.48;7.57;;;16.00;99.90;;;;;;4972964;28;99518;-72
2022/10/10 10:04:12;;;;;;;9.77;7.38;;;16.00;99.90;;;;;;4971671;28;101548;-72
2022/10/10 10:07:05;;;;;;;11.23;7.50;;;16.10;99.90;;;;;;4988906;28;98593;-72
2022/10/10 10:09:32;;;;;;;9.20;7.65;;;16.20;99.90;;;;;;4955682;28;99110;-72
2022/10/10 10:11:59;;;;;;;17.80;12.52;;;16.20;99.90;;;;;;4955337;28;101773;-72
2022/10/10 10:14:30;;;;;;;46.13;34.13;;;16.40;99.90;;;;;;4972772;28;98974;-72
2022/10/10 10:17:07;;;;;;;11.75;7.95;;;16.60;99.90;;;;;;4954710;28;99168;-73
2022/10/10 10:19:38;;;;;;;11.70;8.90;;;16.80;99.90;;;;;;4972906;28;98528;-73
2022/10/10 10:22:26;;;;;;;10.75;8.05;;;17.00;99.90;;;;;;4972757;28;100149;-72
2022/10/10 10:24:53;;;;;;;8.07;7.28;;;17.10;99.90;;;;;;4971845;28;99751;-73
2022/10/10 10:27:23;;;;;;;9.75;7.65;;;17.10;99.90;;;;;;4971751;28;98448;-73
2022/10/10 10:29:55;;;;;;;8.73;7.63;;;17.10;99.90;;;;;;4971093;28;98678;-72
2022/10/10 10:32:54;;;;;;;10.70;7.03;;;17.10;99.90;;;;;;4972439;28;99337;-73
2022/10/10 10:35:34;;;;;;;8.75;6.93;;;17.10;99.90;;;;;;4972603;28;103286;-72
2022/10/10 10:38:07;;;;;;;10.32;6.72;;;17.10;99.90;;;;;;4971448;28;99044;-73
2022/10/10 10:41:03;;;;;;;9.25;7.45;;;17.10;99.90;;;;;;4973161;28;97855;-73
2022/10/10 10:43:38;;;;;;;7.90;7.15;;;17.20;99.90;;;;;;4971168;28;100306;-73
2022/10/10 10:46:10;;;;;;;9.27;7.07;;;17.10;99.90;;;;;;4972588;28;99221;-72
2022/10/10 10:49:01;;;;;;;8.93;7.45;;;17.20;99.90;;;;;;4970827;28;99282;-73
2022/10/10 10:51:53;;;;;;;9.48;6.95;;;17.20;99.90;;;;;;4972719;28;98455;-73
2022/10/10 10:54:29;;;;;;;8.77;7.72;;;17.20;99.90;;;;;;4970817;28;101803;-73
2022/10/10 10:57:12;;;;;;;8.50;7.35;;;17.10;99.90;;;;;;4971174;28;100312;-73
2022/10/10 11:00:13;;;;;;;9.25;7.35;;;17.20;99.90;;;;;;4973073;28;99084;-73
2022/10/10 11:03:30;;;;;;;11.05;7.32;;;17.20;99.90;;;;;;4972867;28;98602;-73
2022/10/10 11:06:19;;;;;;;10.05;7.55;;;17.30;99.90;;;;;;4957450;28;101920;-72
2022/10/10 11:08:56;;;;;;;10.77;8.32;;;17.20;99.90;;;;;;4972396;28;98990;-73
2022/10/10 11:11:58;;;;;;;12.00;7.82;;;17.30;99.90;;;;;;4971410;28;98428;-73
2022/10/10 11:14:48;;;;;;;8.80;7.90;;;17.40;99.90;;;;;;4956629;28;98564;-73
2022/10/10 11:17:22;;;;;;;11.25;7.60;;;17.50;99.90;;;;;;4986806;28;102506;-73
2022/10/10 11:20:02;;;;;;;12.35;7.75;;;17.50;99.90;;;;;;4972324;28;99799;-73
2022/10/10 11:22:39;;;;;;;9.07;7.40;;;17.70;99.90;;;;;;4971324;28;98569;-73
2022/10/10 11:25:06;;;;;;;9.40;7.60;;;17.70;99.90;;;;;;4972542;28;98527;-73
2022/10/10 11:27:49;;;;;;;8.60;7.30;;;17.80;99.90;;;;;;4986906;28;100200;-73
2022/10/10 11:30:24;;;;;;;11.38;8.30;;;18.00;99.90;;;;;;4973804;28;98999;-73
2022/10/10 11:32:54;;;;;;;9.88;7.35;;;18.00;99.90;;;;;;4974658;28;98526;-73
2022/10/10 11:35:56;;;;;;;8.52;6.90;;;18.10;99.90;;;;;;4976100;28;98436;-73
2022/10/10 11:38:48;;;;;;;17.45;10.43;;;18.30;99.60;;;;;;4964196;28;99398;-73
2022/10/10 11:41:32;;;;;;;13.85;9.32;;;18.30;99.70;;;;;;4957318;28;101618;-73
2022/10/10 11:44:02;;;;;;;11.82;8.88;;;18.40;99.70;;;;;;4990167;28;99321;-73
2022/10/10 11:46:41;;;;;;;11.98;7.95;;;18.30;99.60;;;;;;4974124;28;98611;-73
2022/10/10 11:49:11;;;;;;;8.68;7.60;;;18.40;99.50;;;;;;4975694;28;99653;-72
2022/10/10 11:51:48;;;;;;;12.07;7.10;;;18.30;99.70;;;;;;4974418;28;111595;-73
2022/10/10 11:54:25;;;;;;;9.18;8.23;;;18.20;99.70;;;;;;4990833;28;98543;-73
2022/10/10 11:56:57;;;;;;;11.07;7.82;;;18.20;99.80;;;;;;4975481;28;98497;-72
2022/10/10 11:59:33;;;;;;;8.65;7.35;;;18.00;99.90;;;;;;4974998;28;99356;-73
2022/10/10 12:02:04;;;;;;;11.57;7.22;;;18.00;99.80;;;;;;4975624;28;99125;-73
2022/10/10 12:04:35;;;;;;;10.00;7.78;;;17.90;99.90;;;;;;4975372;28;98466;-73
2022/10/10 12:07:10;;;;;;;11.20;6.82;;;17.80;99.90;;;;;;4957680;28;98595;-72
2022/10/10 12:09:42;;;;;;;10.77;6.95;;;17.70;99.90;;;;;;4973231;28;99979;-72
2022/10/10 12:12:20;;;;;;;10.45;7.68;;;17.70;99.90;;;;;;4974694;28;99505;-73
2022/10/10 12:14:52;;;;;;;11.55;7.63;;;17.60;99.90;;;;;;4973746;28;98641;-72
2022/10/10 12:17:26;;;;;;;8.37;6.90;;;17.50;99.90;;;;;;4975385;28;98405;-72
2022/10/10 12:19:53;;;;;;;11.55;7.22;;;17.40;99.90;;;;;;4973452;28;101908;-72
2022/10/10 12:22:27;;;;;;;8.93;6.43;;;17.40;99.90;;;;;;4974172;28;114631;-73
2022/10/10 12:25:10;;;;;;;10.75;7.80;;;17.40;99.90;;;;;;4974029;28;98508;-73
2022/10/10 12:28:01;;;;;;;11.45;7.47;;;17.40;99.90;;;;;;4975309;28;97785;-72
2022/10/10 12:30:28;;;;;;;12.32;7.80;;;17.30;99.90;;;;;;4974358;28;99172;-73
2022/10/10 12:32:56;;;;;;;7.90;7.10;;;17.30;99.90;;;;;;4956890;28;101608;-73
2022/10/10 12:35:49;;;;;;;8.65;6.90;;;17.40;99.90;;;;;;4974435;28;99249;-73
2022/10/10 12:38:25;;;;;;;9.23;6.68;;;17.50;99.90;;;;;;4986621;28;98489;-73
2022/10/10 12:41:15;;;;;;;18.50;12.30;;;17.30;99.90;;;;;;4972796;28;99247;-73
2022/10/10 12:44:14;;;;;;;9.93;7.68;;;17.40;99.90;;;;;;4972177;28;100359;-73
2022/10/10 12:46:41;;;;;;;35.00;18.70;;;17.30;99.90;;;;;;4973141;28;99234;-73
2022/10/10 12:49:23;;;;;;;8.13;6.88;;;17.20;99.90;;;;;;4972110;28;107568;-73
2022/10/10 12:52:06;;;;;;;10.95;7.78;;;17.30;99.90;;;;;;4974029;28;99391;-73
2022/10/10 12:54:40;;;;;;;7.40;6.70;;;17.20;99.90;;;;;;4973104;28;100046;-72
2022/10/10 12:57:10;;;;;;;8.50;7.30;;;17.20;99.90;;;;;;4973298;28;98637;-72
2022/10/10 12:59:38;;;;;;;9.40;7.45;;;17.20;99.90;;;;;;4974402;28;98490;-73
2022/10/10 13:02:16;;;;;;;34.30;22.33;;;17.20;99.90;;;;;;4972429;28;100216;-73
2022/10/10 13:04:45;;;;;;;11.88;8.82;;;17.30;99.90;;;;;;4973419;28;99910;-72
2022/10/10 13:07:19;;;;;;;9.65;7.80;;;17.20;99.90;;;;;;4956793;28;99008;-73
2022/10/10 13:09:51;;;;;;;9.93;8.02;;;17.20;99.90;;;;;;4974431;28;98559;-72
2022/10/10 13:12:24;;;;;;;9.38;7.85;;;17.20;99.90;;;;;;4974047;28;99007;-73
2022/10/10 13:14:51;;;;;;;12.05;7.75;;;17.10;99.90;;;;;;4973930;28;99097;-73
2022/10/10 13:17:24;;;;;;;12.02;8.65;;;17.10;99.90;;;;;;4972812;28;98565;-73
2022/10/10 13:19:53;;;;;;;12.07;8.63;;;17.10;99.90;;;;;;4974367;28;97740;-73